sensor_id;sensor_type;location;lat;lon;timestamp;pressure;altitude;pressure_sealevel;temperature;humidity
53699;BME280;68408;53.952;27.612;2023-09-12T00:01:14;1012.8;;;16.1;61.4
53699;BME280;68408;53.952;27.612;2023-09-12T00:05:54;1012.8;;;16.1;61.6
53699;BME280;68408;53.952;27.612;2023-09-12T00:10:38;1012.8;;;16;61.7
53699;BME280;68408;53.952;27.612;2023-09-12T00:16:10;1012.8;;;15.9;61.8
53699;BME280;68408;53.952;27.612;2023-09-12T00:21:24;1012.8;;;15.9;61.7
53699;BME280;68408;53.952;27.612;2023-09-12T00:25:54;1012.7;;;15.9;61.7
53699;BME280;68408;53.952;27.612;2023-09-12T00:30:52;1012.7;;;15.8;61.8
53699;BME280;68408;53.952;27.612;2023-09-12T00:35:38;1012.7;;;15.8;61.8
53699;BME280;68408;53.952;27.612;2023-09-12T00:40:44;1012.8;;;15.8;61.8
53699;BME280;68408;53.952;27.612;2023-09-12T00:46:24;1012.8;;;15.7;61.7
53699;BME280;68408;53.952;27.612;2023-09-12T00:51:14;1012.8;;;15.7;61.7
53699;BME280;68408;53.952;27.612;2023-09-12T00:56:10;1012.9;;;15.7;61.8
53699;BME280;68408;53.952;27.612;2023-09-12T01:00:52;1012.9;;;15.7;61.8
53699;BME280;68408;53.952;27.612;2023-09-12T01:05:54;1012.9;;;15.6;61.7
53699;BME280;68408;53.952;27.612;2023-09-12T01:11:24;1012.9;;;15.7;61.7
53699;BME280;68408;53.952;27.612;2023-09-12T01:16:00;1012.9;;;15.6;61.6
53699;BME280;68408;53.952;27.612;2023-09-12T01:20:47;1012.9;;;15.6;61.5
53699;BME280;68408;53.952;27.612;2023-09-12T01:25:42;1012.9;;;15.6;61.4
53699;BME280;68408;53.952;27.612;2023-09-12T01:30:38;1012.9;;;15.6;61.4
53699;BME280;68408;53.952;27.612;2023-09-12T01:36:24;1012.9;;;15.6;61.3
53699;BME280;68408;53.952;27.612;2023-09-12T01:41:22;1012.9;;;15.6;61.1
53699;BME280;68408;53.952;27.612;2023-09-12T01:46:10;1012.9;;;15.6;61.1
53699;BME280;68408;53.952;27.612;2023-09-12T01:50:38;1013;;;15.5;61
53699;BME280;68408;53.952;27.612;2023-09-12T01:56:10;1012.9;;;15.5;61.1
53699;BME280;68408;53.952;27.612;2023-09-12T02:01:24;1012.9;;;15.4;61.2
53699;BME280;68408;53.952;27.612;2023-09-12T02:05:54;1012.9;;;15.4;61.4
53699;BME280;68408;53.952;27.612;2023-09-12T02:10:44;1012.9;;;15.3;61.5
53699;BME280;68408;53.952;27.612;2023-09-12T02:15:38;1012.9;;;15.2;61.7
53699;BME280;68408;53.952;27.612;2023-09-12T02:20:52;1012.9;;;15.2;61.6
53699;BME280;68408;53.952;27.612;2023-09-12T02:26:22;1012.9;;;15.1;61.7
53699;BME280;68408;53.952;27.612;2023-09-12T02:31:02;1012.9;;;15.1;61.6
53699;BME280;68408;53.952;27.612;2023-09-12T02:36:10;1012.9;;;15.1;61.6
53699;BME280;68408;53.952;27.612;2023-09-12T02:40:44;1012.9;;;15;61.6
53699;BME280;68408;53.952;27.612;2023-09-12T02:46:10;1012.9;;;15;61.4
53699;BME280;68408;53.952;27.612;2023-09-12T02:51:22;1013;;;15;61.4
53699;BME280;68408;53.952;27.612;2023-09-12T02:55:44;1013;;;15;61.3
53699;BME280;68408;53.952;27.612;2023-09-12T03:00:44;1013;;;15;61.3
53699;BME280;68408;53.952;27.612;2023-09-12T03:05:38;1013;;;14.9;61.3
53699;BME280;68408;53.952;27.612;2023-09-12T03:10:38;1013;;;14.9;61.3
53699;BME280;68408;53.952;27.612;2023-09-12T03:16:24;1013;;;14.8;61.5
53699;BME280;68408;53.952;27.612;2023-09-12T03:21:12;1013;;;14.8;61.6
53699;BME280;68408;53.952;27.612;2023-09-12T03:26:10;1013;;;14.8;61.6
53699;BME280;68408;53.952;27.612;2023-09-12T03:30:38;1013;;;14.8;61.7
53699;BME280;68408;53.952;27.612;2023-09-12T03:36:10;1012.9;;;14.7;61.9
53699;BME280;68408;53.952;27.612;2023-09-12T03:41:24;1012.9;;;14.7;62.1
53699;BME280;68408;53.952;27.612;2023-09-12T03:45:54;1012.9;;;14.7;62.3
53699;BME280;68408;53.952;27.612;2023-09-12T03:50:38;1012.9;;;14.7;62.3
53699;BME280;68408;53.952;27.612;2023-09-12T03:55:57;1012.9;;;14.7;62.4
53699;BME280;68408;53.952;27.612;2023-09-12T04:01:14;1012.9;;;14.7;62.5
53699;BME280;68408;53.952;27.612;2023-09-12T04:06:24;1012.9;;;14.7;62.5
53699;BME280;68408;53.952;27.612;2023-09-12T04:11:14;1012.9;;;14.7;62.4
53699;BME280;68408;53.952;27.612;2023-09-12T04:16:10;1012.9;;;14.8;62.4
53699;BME280;68408;53.952;27.612;2023-09-12T04:21:06;1012.9;;;14.8;62.3
53699;BME280;68408;53.952;27.612;2023-09-12T04:26:00;1012.9;;;14.9;62.1
53699;BME280;68408;53.952;27.612;2023-09-12T04:31:22;1012.9;;;15;61.9
53699;BME280;68408;53.952;27.612;2023-09-12T04:35:44;1012.9;;;15.1;61.5
53699;BME280;68408;53.952;27.612;2023-09-12T04:40:38;1012.9;;;15.2;61.1
53699;BME280;68408;53.952;27.612;2023-09-12T04:46:20;1012.9;;;15.3;60.8
53699;BME280;68408;53.952;27.612;2023-09-12T04:51:14;1012.9;;;15.4;60.5
53699;BME280;68408;53.952;27.612;2023-09-12T04:56:20;1012.9;;;15.6;60.1
53699;BME280;68408;53.952;27.612;2023-09-12T05:01:12;1012.9;;;15.8;59.8
53699;BME280;68408;53.952;27.612;2023-09-12T05:06:08;1012.8;;;16;59.2
53699;BME280;68408;53.952;27.612;2023-09-12T05:11:08;1012.8;;;16.2;58.8
53699;BME280;68408;53.952;27.612;2023-09-12T05:16:00;1012.8;;;16.3;58.4
53699;BME280;68408;53.952;27.612;2023-09-12T05:21:22;1012.9;;;16.5;57.5
53699;BME280;68408;53.952;27.612;2023-09-12T05:25:38;1012.9;;;16.7;56.9
53699;BME280;68408;53.952;27.612;2023-09-12T05:30:38;1012.9;;;16.8;56.5
53699;BME280;68408;53.952;27.612;2023-09-12T05:35:44;1013;;;16.9;55.9
53699;BME280;68408;53.952;27.612;2023-09-12T05:41:14;1012.9;;;17.1;55.1
53699;BME280;68408;53.952;27.612;2023-09-12T05:46:20;1012.9;;;17.1;54.7
53699;BME280;68408;53.952;27.612;2023-09-12T05:51:14;1012.9;;;17.2;54.4
53699;BME280;68408;53.952;27.612;2023-09-12T05:56:08;1012.9;;;17.3;54.1
53699;BME280;68408;53.952;27.612;2023-09-12T06:00:50;1012.9;;;17.5;53.9
53699;BME280;68408;53.952;27.612;2023-09-12T06:06:00;1012.9;;;17.6;53.4
53699;BME280;68408;53.952;27.612;2023-09-12T06:11:22;1012.9;;;17.7;53.2
53699;BME280;68408;53.952;27.612;2023-09-12T06:15:44;1012.9;;;17.9;53
53699;BME280;68408;53.952;27.612;2023-09-12T06:20:44;1012.9;;;18.1;52.4
53699;BME280;68408;53.952;27.612;2023-09-12T06:25:48;1012.9;;;18.3;52.1
53699;BME280;68408;53.952;27.612;2023-09-12T06:30:54;1013;;;18.5;51.8
53699;BME280;68408;53.952;27.612;2023-09-12T06:36:18;1012.9;;;18.8;51.4
53699;BME280;68408;53.952;27.612;2023-09-12T06:41:12;1012.9;;;19;51
53699;BME280;68408;53.952;27.612;2023-09-12T06:46:06;1012.9;;;19.2;50.3
53699;BME280;68408;53.952;27.612;2023-09-12T06:50:48;1013;;;19.4;49.7
53699;BME280;68408;53.952;27.612;2023-09-12T06:55:58;1013;;;19.6;49.3
53699;BME280;68408;53.952;27.612;2023-09-12T07:01:20;1013;;;19.7;48.1
53699;BME280;68408;53.952;27.612;2023-09-12T07:06:00;1013.1;;;19.9;48
53699;BME280;68408;53.952;27.612;2023-09-12T07:11:08;1013;;;20.1;47.1
53699;BME280;68408;53.952;27.612;2023-09-12T07:15:56;1013;;;20.4;46.3
53699;BME280;68408;53.952;27.612;2023-09-12T07:21:14;1013;;;20.6;45.3
53699;BME280;68408;53.952;27.612;2023-09-12T07:26:22;1013;;;20.8;44.5
53699;BME280;68408;53.952;27.612;2023-09-12T07:31:14;1013.1;;;21.1;44.2
53699;BME280;68408;53.952;27.612;2023-09-12T07:36:08;1013;;;21.4;43.7
53699;BME280;68408;53.952;27.612;2023-09-12T07:40:50;1013;;;21.7;42.8
53699;BME280;68408;53.952;27.612;2023-09-12T07:45:38;1013;;;21.7;42.2
53699;BME280;68408;53.952;27.612;2023-09-12T07:51:22;1012.9;;;21.8;41.3
53699;BME280;68408;53.952;27.612;2023-09-12T07:55:44;1012.9;;;22.1;41.2
53699;BME280;68408;53.952;27.612;2023-09-12T08:00:38;1012.9;;;22.4;39.9
53699;BME280;68408;53.952;27.612;2023-09-12T08:05:38;1012.8;;;22.7;39.4
53699;BME280;68408;53.952;27.612;2023-09-12T08:10:56;1012.8;;;23;38.8
53699;BME280;68408;53.952;27.612;2023-09-12T08:16:22;1012.8;;;23.3;38.2
53699;BME280;68408;53.952;27.612;2023-09-12T08:21:22;1012.8;;;23.6;37.5
53699;BME280;68408;53.952;27.612;2023-09-12T08:26:08;1012.8;;;23.8;37
53699;BME280;68408;53.952;27.612;2023-09-12T08:31:22;1012.8;;;24;36.1
53699;BME280;68408;53.952;27.612;2023-09-12T08:36:00;1012.8;;;24.1;35.6
53699;BME280;68408;53.952;27.612;2023-09-12T08:41:08;1012.8;;;24.3;35.6
53699;BME280;68408;53.952;27.612;2023-09-12T08:45:38;1012.8;;;24.4;35.4
53699;BME280;68408;53.952;27.612;2023-09-12T08:55:44;1012.8;;;24.5;35.1
53699;BME280;68408;53.952;27.612;2023-09-12T09:00:56;1012.8;;;24.5;34.4
53699;BME280;68408;53.952;27.612;2023-09-12T09:06:22;1012.8;;;24.5;34.5
53699;BME280;68408;53.952;27.612;2023-09-12T09:11:22;1012.8;;;24.6;34.5
53699;BME280;68408;53.952;27.612;2023-09-12T09:16:09;1012.8;;;24.7;34.2
53699;BME280;68408;53.952;27.612;2023-09-12T09:21:23;1012.8;;;24.7;34.2
53699;BME280;68408;53.952;27.612;2023-09-12T09:26:00;1012.8;;;24.7;34.3
53699;BME280;68408;53.952;27.612;2023-09-12T09:31:09;1012.8;;;24.9;34
53699;BME280;68408;53.952;27.612;2023-09-12T09:35:38;1012.8;;;25.1;33.4
53699;BME280;68408;53.952;27.612;2023-09-12T09:41:00;1012.7;;;25.2;32.9
53699;BME280;68408;53.952;27.612;2023-09-12T09:45:54;1012.7;;;25.3;32.8
53699;BME280;68408;53.952;27.612;2023-09-12T09:51:00;1012.7;;;25.3;32.7
53699;BME280;68408;53.952;27.612;2023-09-12T09:56:20;1012.7;;;25.5;32.3
53699;BME280;68408;53.952;27.612;2023-09-12T10:01:21;1012.7;;;25.6;32.2
53699;BME280;68408;53.952;27.612;2023-09-12T10:06:08;1012.7;;;25.8;31.8
53699;BME280;68408;53.952;27.612;2023-09-12T10:11:20;1012.6;;;25.8;31.6
53699;BME280;68408;53.952;27.612;2023-09-12T10:15:38;1012.6;;;25.9;31.6
53699;BME280;68408;53.952;27.612;2023-09-12T10:21:10;1012.6;;;25.9;31.7
53699;BME280;68408;53.952;27.612;2023-09-12T10:25:44;1012.6;;;26.1;31.9
53699;BME280;68408;53.952;27.612;2023-09-12T10:30:44;1012.5;;;26.1;31.6
53699;BME280;68408;53.952;27.612;2023-09-12T10:35:38;1012.5;;;26.1;31.9
53699;BME280;68408;53.952;27.612;2023-09-12T10:40:38;1012.5;;;26;32
53699;BME280;68408;53.952;27.612;2023-09-12T10:46:20;1012.5;;;26.1;31.9
53699;BME280;68408;53.952;27.612;2023-09-12T10:51:18;1012.5;;;26.4;31.5
53699;BME280;68408;53.952;27.612;2023-09-12T10:56:17;1012.4;;;26.5;31.2
53699;BME280;68408;53.952;27.612;2023-09-12T11:01:23;1012.4;;;26.7;31
53699;BME280;68408;53.952;27.612;2023-09-12T11:06:00;1012.4;;;26.8;30.9
53699;BME280;68408;53.952;27.612;2023-09-12T11:11:24;1012.4;;;27;30.9
53699;BME280;68408;53.952;27.612;2023-09-12T11:16:09;1012.3;;;27.1;30.6
53699;BME280;68408;53.952;27.612;2023-09-12T11:21:00;1012.4;;;27.2;30.5
53699;BME280;68408;53.952;27.612;2023-09-12T11:25:48;1012.4;;;27.1;30.7
53699;BME280;68408;53.952;27.612;2023-09-12T11:30:55;1012.4;;;27;30.9
53699;BME280;68408;53.952;27.612;2023-09-12T11:36:20;1012.3;;;27.1;30.6
53699;BME280;68408;53.952;27.612;2023-09-12T11:41:48;1012.3;;;27.1;30.6
53699;BME280;68408;53.952;27.612;2023-09-12T11:46:08;1012.3;;;27.1;30.7
53699;BME280;68408;53.952;27.612;2023-09-12T11:51:20;1012.2;;;27.3;30.6
53699;BME280;68408;53.952;27.612;2023-09-12T11:56:00;1012.2;;;27.3;30.6
53699;BME280;68408;53.952;27.612;2023-09-12T12:01:08;1012.2;;;27.3;30.7
53699;BME280;68408;53.952;27.612;2023-09-12T12:05:38;1012.2;;;27.3;30.8
53699;BME280;68408;53.952;27.612;2023-09-12T12:10:48;1012.1;;;27.4;30.6
53699;BME280;68408;53.952;27.612;2023-09-12T12:15:52;1012.1;;;27.5;30.5
53699;BME280;68408;53.952;27.612;2023-09-12T12:20:52;1012.1;;;27.5;30.7
53699;BME280;68408;53.952;27.612;2023-09-12T12:26:02;1012.1;;;27.5;30.8
53699;BME280;68408;53.952;27.612;2023-09-12T12:31:02;1012.1;;;27.7;30.7
53699;BME280;68408;53.952;27.612;2023-09-12T12:36:18;1012;;;27.8;30.6
53699;BME280;68408;53.952;27.612;2023-09-12T12:41:23;1012;;;27.8;30.6
53699;BME280;68408;53.952;27.612;2023-09-12T12:46:00;1012;;;27.8;30.8
53699;BME280;68408;53.952;27.612;2023-09-12T12:51:20;1012;;;27.7;30.8
53699;BME280;68408;53.952;27.612;2023-09-12T12:55:45;1011.9;;;27.6;31
53699;BME280;68408;53.952;27.612;2023-09-12T13:00:38;1011.9;;;27.7;31
53699;BME280;68408;53.952;27.612;2023-09-12T13:06:00;1011.9;;;27.7;31.1
53699;BME280;68408;53.952;27.612;2023-09-12T13:10:46;1011.8;;;27.6;31
53699;BME280;68408;53.952;27.612;2023-09-12T13:16:02;1011.8;;;27.6;31.1
53699;BME280;68408;53.952;27.612;2023-09-12T13:21:00;1011.8;;;27.7;31
53699;BME280;68408;53.952;27.612;2023-09-12T13:26:20;1011.8;;;27.7;30.9
53699;BME280;68408;53.952;27.612;2023-09-12T13:31:20;1011.8;;;27.8;30.9
53699;BME280;68408;53.952;27.612;2023-09-12T13:36:00;1011.7;;;27.7;31.1
53699;BME280;68408;53.952;27.612;2023-09-12T13:41:20;1011.7;;;27.7;31.1
53699;BME280;68408;53.952;27.612;2023-09-12T13:45:56;1011.7;;;27.7;31.1
53699;BME280;68408;53.952;27.612;2023-09-12T13:50:38;1011.7;;;27.7;31
53699;BME280;68408;53.952;27.612;2023-09-12T13:56:02;1011.7;;;27.7;31
53699;BME280;68408;53.952;27.612;2023-09-12T14:00:48;1011.7;;;27.6;31.1
53699;BME280;68408;53.952;27.612;2023-09-12T14:05:46;1011.6;;;27.7;30.9
53699;BME280;68408;53.952;27.612;2023-09-12T14:11:06;1011.6;;;27.7;31
53699;BME280;68408;53.952;27.612;2023-09-12T14:16:24;1011.7;;;27.6;31.2
53699;BME280;68408;53.952;27.612;2023-09-12T14:21:24;1011.7;;;27.5;31.2
53699;BME280;68408;53.952;27.612;2023-09-12T14:25:54;1011.7;;;27.4;31.4
53699;BME280;68408;53.952;27.612;2023-09-12T14:31:32;1011.7;;;27.2;31.8
53699;BME280;68408;53.952;27.612;2023-09-12T14:36:00;1011.7;;;27.1;31.9
53699;BME280;68408;53.952;27.612;2023-09-12T14:41:02;1011.7;;;27;32
53699;BME280;68408;53.952;27.612;2023-09-12T14:46:04;1011.7;;;27;32.2
53699;BME280;68408;53.952;27.612;2023-09-12T14:50:54;1011.6;;;26.8;32.4
53699;BME280;68408;53.952;27.612;2023-09-12T14:56:07;1011.6;;;26.7;32.7
53699;BME280;68408;53.952;27.612;2023-09-12T15:01:07;1011.7;;;26.6;33.1
53699;BME280;68408;53.952;27.612;2023-09-12T15:06:24;1011.7;;;26.5;33.3
53699;BME280;68408;53.952;27.612;2023-09-12T15:11:25;1011.7;;;26.4;33.3
53699;BME280;68408;53.952;27.612;2023-09-12T15:16:02;1011.8;;;26.3;33.5
53699;BME280;68408;53.952;27.612;2023-09-12T15:21:23;1011.8;;;26.3;33.5
53699;BME280;68408;53.952;27.612;2023-09-12T15:25:48;1011.9;;;26.2;33.7
53699;BME280;68408;53.952;27.612;2023-09-12T15:30:54;1011.9;;;26.2;33.8
53699;BME280;68408;53.952;27.612;2023-09-12T15:36:04;1011.8;;;26.2;34
53699;BME280;68408;53.952;27.612;2023-09-12T15:40:57;1011.9;;;26.1;34.2
53699;BME280;68408;53.952;27.612;2023-09-12T15:46:06;1011.8;;;26;34.4
53699;BME280;68408;53.952;27.612;2023-09-12T15:51:07;1011.9;;;25.8;34.6
53699;BME280;68408;53.952;27.612;2023-09-12T15:56:22;1011.9;;;25.7;34.8
53699;BME280;68408;53.952;27.612;2023-09-12T16:01:23;1011.9;;;25.6;35
53699;BME280;68408;53.952;27.612;2023-09-12T16:06:08;1012;;;25.4;35.5
53699;BME280;68408;53.952;27.612;2023-09-12T16:11:22;1012;;;25.2;35.9
53699;BME280;68408;53.952;27.612;2023-09-12T16:15:44;1012;;;25;36.4
53699;BME280;68408;53.952;27.612;2023-09-12T16:20:39;1012;;;24.8;36.9
53699;BME280;68408;53.952;27.612;2023-09-12T16:26:04;1012;;;24.6;37.4
53699;BME280;68408;53.952;27.612;2023-09-12T16:30:56;1012;;;24.4;37.9
53699;BME280;68408;53.952;27.612;2023-09-12T16:35:52;1012;;;24.2;38.4
53699;BME280;68408;53.952;27.612;2023-09-12T16:41:06;1012.1;;;24;38.8
53699;BME280;68408;53.952;27.612;2023-09-12T16:46:22;1012.1;;;23.9;39.1
53699;BME280;68408;53.952;27.612;2023-09-12T16:51:22;1012.1;;;23.8;39.5
53699;BME280;68408;53.952;27.612;2023-09-12T16:56:08;1012.1;;;23.7;39.8
53699;BME280;68408;53.952;27.612;2023-09-12T17:01:22;1012.2;;;23.5;40.4
53699;BME280;68408;53.952;27.612;2023-09-12T17:05:48;1012.1;;;23.3;40.7
53699;BME280;68408;53.952;27.612;2023-09-12T17:10:38;1012.1;;;23.1;41.1
53699;BME280;68408;53.952;27.612;2023-09-12T17:16:20;1012.2;;;23;41.3
53699;BME280;68408;53.952;27.612;2023-09-12T17:20:56;1012.2;;;22.9;41.6
53699;BME280;68408;53.952;27.612;2023-09-12T17:26:04;1012.3;;;22.8;42
53699;BME280;68408;53.952;27.612;2023-09-12T17:31:06;1012.3;;;22.6;42.3
53699;BME280;68408;53.952;27.612;2023-09-12T17:36:22;1012.3;;;22.5;42.7
53699;BME280;68408;53.952;27.612;2023-09-12T17:41:22;1012.3;;;22.4;43
53699;BME280;68408;53.952;27.612;2023-09-12T17:45:53;1012.3;;;22.3;43.3
53699;BME280;68408;53.952;27.612;2023-09-12T17:51:20;1012.4;;;22.2;43.7
53699;BME280;68408;53.952;27.612;2023-09-12T17:55:38;1012.3;;;22;44.1
53699;BME280;68408;53.952;27.612;2023-09-12T18:00:38;1012.4;;;21.9;44.4
53699;BME280;68408;53.952;27.612;2023-09-12T18:06:04;1012.4;;;21.7;44.8
53699;BME280;68408;53.952;27.612;2023-09-12T18:10:48;1012.4;;;21.6;45.1
53699;BME280;68408;53.952;27.612;2023-09-12T18:16:06;1012.4;;;21.5;45.4
53699;BME280;68408;53.952;27.612;2023-09-12T18:21:06;1012.4;;;21.5;45.7
53699;BME280;68408;53.952;27.612;2023-09-12T18:26:22;1012.4;;;21.4;45.9
53699;BME280;68408;53.952;27.612;2023-09-12T18:31:22;1012.5;;;21.3;46.2
53699;BME280;68408;53.952;27.612;2023-09-12T18:35:38;1012.5;;;21.3;46.4
53699;BME280;68408;53.952;27.612;2023-09-12T18:41:22;1012.6;;;21.2;46.6
53699;BME280;68408;53.952;27.612;2023-09-12T18:45:46;1012.6;;;21.1;46.8
53699;BME280;68408;53.952;27.612;2023-09-12T18:50:38;1012.6;;;21;47.1
53699;BME280;68408;53.952;27.612;2023-09-12T18:56:06;1012.6;;;21;47.2
53699;BME280;68408;53.952;27.612;2023-09-12T19:00:38;1012.6;;;21;47.4
53699;BME280;68408;53.952;27.612;2023-09-12T19:06:05;1012.6;;;20.9;47.5
53699;BME280;68408;53.952;27.612;2023-09-12T19:11:04;1012.5;;;20.9;47.6
53699;BME280;68408;53.952;27.612;2023-09-12T19:16:22;1012.5;;;20.9;47.6
53699;BME280;68408;53.952;27.612;2023-09-12T19:21:22;1012.5;;;20.9;47.6
53699;BME280;68408;53.952;27.612;2023-09-12T19:25:52;1012.5;;;20.8;47.7
53699;BME280;68408;53.952;27.612;2023-09-12T19:31:20;1012.5;;;20.8;47.9
53699;BME280;68408;53.952;27.612;2023-09-12T19:35:44;1012.6;;;20.7;48
53699;BME280;68408;53.952;27.612;2023-09-12T19:40:58;1012.6;;;20.6;48.2
53699;BME280;68408;53.952;27.612;2023-09-12T19:46:06;1012.6;;;20.5;48.3
53699;BME280;68408;53.952;27.612;2023-09-12T19:50:54;1012.6;;;20.5;48.4
53699;BME280;68408;53.952;27.612;2023-09-12T19:56:04;1012.7;;;20.4;48.5
53699;BME280;68408;53.952;27.612;2023-09-12T20:00:58;1012.7;;;20.4;48.5
53699;BME280;68408;53.952;27.612;2023-09-12T20:06:22;1012.6;;;20.4;48.6
53699;BME280;68408;53.952;27.612;2023-09-12T20:11:22;1012.7;;;20.3;48.7
53699;BME280;68408;53.952;27.612;2023-09-12T20:15:58;1012.7;;;20.3;48.8
53699;BME280;68408;53.952;27.612;2023-09-12T20:21:22;1012.7;;;20.3;48.8
53699;BME280;68408;53.952;27.612;2023-09-12T20:25:38;1012.7;;;20.2;48.9
53699;BME280;68408;53.952;27.612;2023-09-12T20:30:38;1012.7;;;20.3;48.9
53699;BME280;68408;53.952;27.612;2023-09-12T20:35:40;1012.7;;;20.3;48.8
53699;BME280;68408;53.952;27.612;2023-09-12T20:40:56;1012.7;;;20.3;48.8
53699;BME280;68408;53.952;27.612;2023-09-12T20:45:54;1012.7;;;20.3;48.8
53699;BME280;68408;53.952;27.612;2023-09-12T20:51:07;1012.7;;;20.3;48.8
53699;BME280;68408;53.952;27.612;2023-09-12T20:55:52;1012.7;;;20.3;48.8
53699;BME280;68408;53.952;27.612;2023-09-12T21:01:22;1012.7;;;20.3;48.7
53699;BME280;68408;53.952;27.612;2023-09-12T21:06:12;1012.7;;;20.3;48.8
53699;BME280;68408;53.952;27.612;2023-09-12T21:10:44;1012.6;;;20.3;48.7
53699;BME280;68408;53.952;27.612;2023-09-12T21:16:06;1012.6;;;20.3;48.8
53699;BME280;68408;53.952;27.612;2023-09-12T21:20:38;1012.6;;;20.2;48.9
53699;BME280;68408;53.952;27.612;2023-09-12T21:26:22;1012.6;;;20.1;49
53699;BME280;68408;53.952;27.612;2023-09-12T21:30:56;1012.6;;;20;49.2
53699;BME280;68408;53.952;27.612;2023-09-12T21:35:52;1012.6;;;19.9;49.4
53699;BME280;68408;53.952;27.612;2023-09-12T21:41:06;1012.6;;;19.8;49.7
53699;BME280;68408;53.952;27.612;2023-09-12T21:45:44;1012.7;;;19.7;49.9
53699;BME280;68408;53.952;27.612;2023-09-12T21:51:22;1012.7;;;19.6;50.1
53699;BME280;68408;53.952;27.612;2023-09-12T21:56:10;1012.7;;;19.5;50.4
53699;BME280;68408;53.952;27.612;2023-09-12T22:00:52;1012.6;;;19.4;50.6
53699;BME280;68408;53.952;27.612;2023-09-12T22:05:46;1012.6;;;19.3;50.8
53699;BME280;68408;53.952;27.612;2023-09-12T22:10:58;1012.6;;;19.2;51
53699;BME280;68408;53.952;27.612;2023-09-12T22:16:22;1012.6;;;19.2;51.1
53699;BME280;68408;53.952;27.612;2023-09-12T22:20:56;1012.6;;;19.1;51.3
53699;BME280;68408;53.952;27.612;2023-09-12T22:25:52;1012.6;;;19;51.5
53699;BME280;68408;53.952;27.612;2023-09-12T22:30:54;1012.6;;;18.9;51.7
53699;BME280;68408;53.952;27.612;2023-09-12T22:35:52;1012.6;;;18.9;51.9
53699;BME280;68408;53.952;27.612;2023-09-12T22:41:22;1012.6;;;18.8;52
53699;BME280;68408;53.952;27.612;2023-09-12T22:45:56;1012.6;;;18.8;52.2
53699;BME280;68408;53.952;27.612;2023-09-12T22:50:38;1012.6;;;18.7;52.4
53699;BME280;68408;53.952;27.612;2023-09-12T22:55:38;1012.6;;;18.6;52.5
53699;BME280;68408;53.952;27.612;2023-09-12T23:00:54;1012.6;;;18.6;52.7
53699;BME280;68408;53.952;27.612;2023-09-12T23:06:22;1012.6;;;18.5;52.9
53699;BME280;68408;53.952;27.612;2023-09-12T23:10:48;1012.5;;;18.5;53.1
53699;BME280;68408;53.952;27.612;2023-09-12T23:15:50;1012.5;;;18.4;53.2
53699;BME280;68408;53.952;27.612;2023-09-12T23:21:04;1012.5;;;18.3;53.4
53699;BME280;68408;53.952;27.612;2023-09-12T23:25:38;1012.5;;;18.3;53.6
53699;BME280;68408;53.952;27.612;2023-09-12T23:31:20;1012.5;;;18.2;53.8
53699;BME280;68408;53.952;27.612;2023-09-12T23:36:12;1012.5;;;18.2;54
53699;BME280;68408;53.952;27.612;2023-09-12T23:40:52;1012.4;;;18.1;54.1
53699;BME280;68408;53.952;27.612;2023-09-12T23:45:38;1012.4;;;18;54.2
53699;BME280;68408;53.952;27.612;2023-09-12T23:50:52;1012.4;;;18;54.5
53699;BME280;68408;53.952;27.612;2023-09-12T23:56:18;1012.3;;;17.9;54.6
